Time;durP1;ratioP1;P1;durP2;ratioP2;P2;SDS_P1;SDS_P2;PMS_P1;PMS_P2;Temp;Humidity;BMP_temperature;BMP_pressure;BME280_temperature;BME280_humidity;BME280_pressure;Samples;Min_cycle;Max_cycle;Signal;HPM_P1;HPM_P2
2022/05/28 00:01:22;;;;;;;1.80;0.65;;;;;;;10.43;62.64;101450.34;4987950;28;20038;-69
2022/05/28 00:03:48;;;;;;;2.88;0.70;;;;;;;10.41;63.50;101445.13;4996798;28;20101;-69
2022/05/28 00:06:17;;;;;;;3.45;0.55;;;;;;;10.38;62.85;101444.75;4997320;28;20030;-70
2022/05/28 00:08:47;;;;;;;1.60;0.50;;;;;;;10.27;62.62;101436.28;4988417;28;20035;-70
2022/05/28 00:11:35;;;;;;;0.93;0.50;;;;;;;10.32;62.70;101449.25;5010988;28;20017;-69
2022/05/28 00:14:01;;;;;;;2.55;0.52;;;;;;;10.33;63.08;101448.19;4983404;28;20087;-70
2022/05/28 00:16:27;;;;;;;0.65;0.40;;;;;;;10.35;63.05;101445.25;4979032;28;20038;-70
2022/05/28 00:18:53;;;;;;;1.15;0.63;;;;;;;10.35;62.78;101450.72;4992041;28;20025;-70
2022/05/28 00:21:20;;;;;;;1.85;0.40;;;;;;;10.38;63.04;101455.69;4992175;28;20113;-70
2022/05/28 00:23:46;;;;;;;2.30;0.80;;;;;;;10.45;62.48;101462.72;4967095;28;20053;-69
2022/05/28 00:26:14;;;;;;;3.00;0.95;;;;;;;10.38;62.31;101455.69;4987738;28;20027;-70
2022/05/28 00:28:39;;;;;;;2.92;0.75;;;;;;;10.33;62.15;101456.38;4983545;28;20018;-70
2022/05/28 00:31:05;;;;;;;8.18;1.17;;;;;;;10.24;62.49;101455.91;4994276;28;20378;-71
2022/05/28 00:33:32;;;;;;;3.72;0.90;;;;;;;10.21;62.79;101450.94;4994044;28;20038;-69
2022/05/28 00:36:00;;;;;;;1.17;0.55;;;;;;;10.14;63.02;101455.69;4985313;28;20088;-69
2022/05/28 00:38:26;;;;;;;2.97;0.60;;;;;;;10.08;62.83;101452.00;4988941;28;20041;-69
2022/05/28 00:40:55;;;;;;;3.33;0.90;;;;;;;10.13;62.76;101448.53;4991799;28;20072;-69
2022/05/28 00:43:21;;;;;;;1.55;0.40;;;;;;;10.24;62.34;101455.91;4986548;28;20459;-70
2022/05/28 00:45:50;;;;;;;1.42;0.60;;;;;;;10.39;61.81;101455.44;4975180;28;20105;-69
2022/05/28 00:48:22;;;;;;;1.88;0.50;;;;;;;10.37;61.66;101454.06;4983156;28;20030;-70
2022/05/28 00:50:48;;;;;;;0.85;0.57;;;;;;;10.36;61.46;101450.47;4998257;28;20117;-69
2022/05/28 00:53:14;;;;;;;2.80;0.60;;;;;;;10.38;61.65;101452.97;4993069;28;20433;-69
2022/05/28 00:55:39;;;;;;;3.22;0.70;;;;;;;10.32;61.16;101457.44;4970788;28;20033;-69
2022/05/28 00:58:07;;;;;;;1.27;0.60;;;;;;;10.48;60.65;101450.44;4956895;28;20031;-69
2022/05/28 01:00:34;;;;;;;2.17;0.68;;;;;;;10.38;60.74;101455.69;4978620;28;20539;-69
2022/05/28 01:03:28;;;;;;;2.30;0.98;;;;;;;10.22;60.49;101458.06;4972324;28;20038;-70
2022/05/28 01:06:25;;;;;;;1.88;0.75;;;;;;;10.07;60.81;101454.97;4997165;28;20025;-69
2022/05/28 01:08:58;;;;;;;1.48;0.70;;;;;;;10.10;60.49;101454.50;4966985;28;20397;-68
2022/05/28 01:11:37;;;;;;;1.75;0.68;;;;;;;10.05;61.09;101447.00;4981529;28;20367;-70
2022/05/28 01:14:11;;;;;;;0.75;0.52;;;;;;;10.10;60.47;101446.28;4989241;28;20527;-70
2022/05/28 01:17:17;;;;;;;3.85;0.52;;;;;;;10.08;61.09;101440.25;4991078;28;20443;-69
2022/05/28 01:20:13;;;;;;;3.10;0.65;;;;;;;9.99;60.55;101433.44;4980648;28;20080;-70
2022/05/28 01:22:57;;;;;;;4.05;0.85;;;;;;;10.15;60.89;101430.03;4989419;28;20046;-68
2022/05/28 01:25:22;;;;;;;1.63;0.55;;;;;;;10.26;60.00;101445.56;4989807;28;20022;-69
2022/05/28 01:27:51;;;;;;;2.85;0.60;;;;;;;10.17;60.09;101440.72;5006876;28;20076;-70
2022/05/28 01:30:18;;;;;;;2.58;0.50;;;;;;;10.02;60.47;101441.19;5006958;28;20121;-70
2022/05/28 01:32:50;;;;;;;0.70;0.45;;;;;;;9.87;60.07;101439.75;5016355;28;20017;-70
2022/05/28 01:35:18;;;;;;;1.20;0.60;;;;;;;9.87;61.13;101444.38;5020131;28;20049;-70
2022/05/28 01:37:46;;;;;;;0.75;0.55;;;;;;;9.78;61.04;101447.47;5002242;28;20105;-70
2022/05/28 01:40:14;;;;;;;0.85;0.28;;;;;;;9.68;60.87;101440.91;5011652;28;20027;-69
2022/05/28 01:42:45;;;;;;;1.27;0.52;;;;;;;9.66;60.95;101427.50;5017366;28;20108;-69
2022/05/28 01:45:13;;;;;;;2.50;0.57;;;;;;;9.81;61.14;101432.50;5006328;28;20030;-70
2022/05/28 01:47:42;;;;;;;1.23;0.60;;;;;;;9.83;60.29;101430.38;4998013;28;20081;-69
2022/05/28 01:50:10;;;;;;;1.33;0.52;;;;;;;9.71;61.04;101432.25;5001434;28;20050;-69
2022/05/28 01:52:38;;;;;;;0.88;0.47;;;;;;;9.63;60.89;101427.16;4997865;28;20499;-69
2022/05/28 01:55:06;;;;;;;1.65;0.70;;;;;;;9.60;61.13;101428.44;5000105;28;20040;-69
2022/05/28 01:57:31;;;;;;;1.15;0.60;;;;;;;9.67;60.82;101436.53;5004511;28;20022;-70
2022/05/28 01:59:57;;;;;;;2.30;0.57;;;;;;;9.65;60.90;101425.00;5018490;28;20113;-68
2022/05/28 02:02:22;;;;;;;2.28;0.70;;;;;;;9.64;60.63;101436.97;5021046;28;20029;-69
2022/05/28 02:04:48;;;;;;;4.53;1.02;;;;;;;9.60;61.06;101432.00;4995355;28;20068;-71
2022/05/28 02:07:16;;;;;;;1.70;0.52;;;;;;;9.57;61.22;101428.91;4987064;28;20129;-69
2022/05/28 02:09:49;;;;;;;0.40;0.40;;;;;;;9.43;61.66;101406.44;4997123;28;20041;-70
2022/05/28 02:12:45;;;;;;;1.65;0.70;;;;;;;9.33;61.74;101406.19;5023519;28;20031;-70
2022/05/28 02:15:38;;;;;;;2.03;0.63;;;;;;;9.32;62.27;101412.72;5026154;28;20080;-70
2022/05/28 02:18:18;;;;;;;1.55;0.65;;;;;;;9.43;62.34;101420.09;4999407;28;20018;-71
2022/05/28 02:21:05;;;;;;;2.42;0.70;;;;;;;9.52;61.92;101424.16;5022150;28;20535;-71
2022/05/28 02:23:46;;;;;;;1.17;0.43;;;;;;;9.43;61.94;101434.59;5030258;28;20052;-70
2022/05/28 02:26:19;;;;;;;1.23;0.50;;;;;;;9.22;61.56;101430.47;5039748;28;20456;-71
2022/05/28 02:28:45;;;;;;;2.20;0.60;;;;;;;9.04;61.80;101436.00;5007372;28;20336;-70
2022/05/28 02:31:20;;;;;;;0.43;0.30;;;;;;;8.85;62.97;101416.94;4996793;28;20025;-71
2022/05/28 02:33:46;;;;;;;1.33;0.63;;;;;;;8.80;63.43;101418.69;5029932;28;20078;-71
2022/05/28 02:36:13;;;;;;;2.08;0.55;;;;;;;8.75;63.22;101411.19;4999310;28;20057;-70
2022/05/28 02:38:39;;;;;;;3.72;0.90;;;;;;;8.74;63.11;101412.25;5001586;28;20152;-70
2022/05/28 02:41:05;;;;;;;1.98;0.60;;;;;;;8.81;63.37;101410.28;4984936;28;20049;-70
2022/05/28 02:43:31;;;;;;;3.20;0.93;;;;;;;8.89;63.46;101412.69;5010964;28;20562;-70
2022/05/28 02:45:58;;;;;;;1.65;0.73;;;;;;;8.95;63.88;101412.81;5000024;28;20460;-71
2022/05/28 02:48:23;;;;;;;3.92;1.35;;;;;;;9.05;63.57;101418.56;4998612;28;20036;-70
2022/05/28 02:50:49;;;;;;;2.22;0.90;;;;;;;9.08;63.77;101415.34;4966712;28;20031;-70
2022/05/28 02:53:14;;;;;;;2.38;0.68;;;;;;;9.10;63.31;101418.69;5003398;28;20033;-70
2022/05/28 02:55:41;;;;;;;3.45;0.73;;;;;;;8.88;62.69;101416.47;5004059;28;20033;-70
2022/05/28 02:58:06;;;;;;;2.55;0.80;;;;;;;8.62;64.20;101414.09;5031300;28;20021;-69
2022/05/28 03:00:32;;;;;;;1.70;0.50;;;;;;;8.38;64.27;101406.59;5002279;28;20069;-70
2022/05/28 03:02:58;;;;;;;1.40;0.45;;;;;;;8.23;64.49;101414.28;4997561;28;20034;-70
2022/05/28 03:05:24;;;;;;;1.30;0.43;;;;;;;8.18;65.69;101420.41;5023682;28;20025;-71
2022/05/28 03:07:50;;;;;;;3.13;0.70;;;;;;;8.19;65.39;101419.38;5007109;28;20033;-69
2022/05/28 03:10:16;;;;;;;2.00;0.50;;;;;;;8.34;65.37;101421.72;5004149;28;20055;-70
2022/05/28 03:12:42;;;;;;;1.58;0.57;;;;;;;8.41;65.02;101421.66;5012479;28;20037;-70
2022/05/28 03:15:08;;;;;;;2.92;0.80;;;;;;;8.42;64.75;101417.03;5002371;28;20025;-70
2022/05/28 03:17:34;;;;;;;1.95;0.70;;;;;;;8.39;64.67;101404.69;4963635;28;20046;-69
2022/05/28 03:20:01;;;;;;;2.40;0.68;;;;;;;8.59;65.06;101422.75;5003528;28;20022;-70
2022/05/28 03:22:27;;;;;;;2.72;0.90;;;;;;;8.64;64.59;101425.59;5016018;28;20054;-70
2022/05/28 03:24:53;;;;;;;2.22;0.85;;;;;;;8.65;64.62;101427.28;4994454;28;20018;-72
2022/05/28 03:27:19;;;;;;;4.35;0.80;;;;;;;8.66;64.81;101423.47;5013315;28;20045;-72
2022/05/28 03:29:45;;;;;;;3.05;0.80;;;;;;;8.84;64.75;101415.25;5024094;28;20022;-69
2022/05/28 03:32:10;;;;;;;2.72;0.82;;;;;;;8.87;64.58;101420.25;4995249;28;20031;-70
2022/05/28 03:34:36;;;;;;;2.65;0.65;;;;;;;8.85;65.21;101413.38;5014297;28;20030;-70
2022/05/28 03:37:02;;;;;;;1.00;0.60;;;;;;;8.76;64.46;101423.78;5014434;28;20583;-69
2022/05/28 03:39:28;;;;;;;2.85;0.93;;;;;;;8.70;65.67;101424.69;5028641;28;20092;-69
2022/05/28 03:41:54;;;;;;;3.60;0.80;;;;;;;8.63;65.65;101415.75;4997473;28;20041;-70
2022/05/28 03:44:19;;;;;;;1.75;0.65;;;;;;;8.55;65.77;101425.06;4999387;28;20018;-69
2022/05/28 03:46:45;;;;;;;1.17;0.55;;;;;;;8.44;66.05;101425.78;5009704;28;20036;-70
2022/05/28 03:49:25;;;;;;;2.97;0.93;;;;;;;8.36;66.54;101421.50;5001246;28;20059;-70
2022/05/28 03:51:51;;;;;;;2.08;0.80;;;;;;;8.32;66.42;101417.53;5013523;28;20057;-70
2022/05/28 03:54:17;;;;;;;1.52;0.70;;;;;;;8.32;66.42;101417.53;5012861;28;20464;-69
2022/05/28 03:56:43;;;;;;;1.48;0.63;;;;;;;8.38;66.48;101420.22;5003875;28;20064;-71
2022/05/28 03:59:10;;;;;;;1.25;0.60;;;;;;;8.38;66.76;101422.09;5000525;28;20026;-72
2022/05/28 04:01:37;;;;;;;2.58;1.00;;;;;;;8.35;67.64;101419.81;5011669;28;20053;-70
2022/05/28 04:04:03;;;;;;;2.00;0.93;;;;;;;8.42;66.59;101425.19;5013851;28;20033;-68
2022/05/28 04:06:28;;;;;;;3.30;1.20;;;;;;;8.38;67.89;101428.38;4997281;28;20034;-70
2022/05/28 04:08:54;;;;;;;6.10;0.75;;;;;;;8.50;67.21;101428.50;4998149;28;20095;-71
2022/05/28 04:11:20;;;;;;;4.35;0.90;;;;;;;8.55;67.86;101434.06;4997461;28;20112;-72
2022/05/28 04:13:46;;;;;;;2.22;0.88;;;;;;;8.54;67.91;101435.16;4967951;28;20532;-70
2022/05/28 04:16:13;;;;;;;5.20;0.82;;;;;;;8.52;67.27;101429.09;5009793;28;20440;-68
2022/05/28 04:18:40;;;;;;;4.07;0.65;;;;;;;8.52;67.77;101433.72;4997324;28;20545;-70
2022/05/28 04:21:06;;;;;;;2.92;0.85;;;;;;;8.46;67.92;101424.53;4984268;28;20040;-68
2022/05/28 04:23:31;;;;;;;1.35;0.70;;;;;;;8.45;68.02;101433.78;4964791;28;20050;-69
2022/05/28 04:25:57;;;;;;;2.60;0.70;;;;;;;8.41;67.24;101432.56;4969395;28;20033;-70
2022/05/28 04:28:22;;;;;;;3.03;0.77;;;;;;;8.44;67.49;101432.13;5011739;28;20029;-70
2022/05/28 04:30:48;;;;;;;1.65;0.80;;;;;;;8.40;67.77;101428.16;4988732;28;20061;-69
2022/05/28 04:33:13;;;;;;;1.30;0.60;;;;;;;8.36;68.31;101429.66;5005965;28;20034;-71
2022/05/28 04:35:39;;;;;;;1.77;0.73;;;;;;;8.36;67.99;101424.22;4996973;28;20053;-70
2022/05/28 04:38:06;;;;;;;2.15;0.57;;;;;;;8.36;67.24;101430.50;4998846;28;20041;-70
2022/05/28 04:40:31;;;;;;;1.95;0.63;;;;;;;8.42;67.83;101423.31;5006841;28;20080;-69
2022/05/28 04:42:57;;;;;;;3.58;0.77;;;;;;;8.52;67.47;101423.63;5015857;28;20056;-70
2022/05/28 04:45:22;;;;;;;7.22;0.80;;;;;;;8.58;68.29;101435.53;5003872;28;20137;-70
2022/05/28 04:47:48;;;;;;;1.55;0.75;;;;;;;8.64;67.58;101434.59;5027395;28;20045;-68
2022/05/28 04:50:13;;;;;;;1.65;0.47;;;;;;;8.69;68.31;101428.50;5004910;28;20113;-71
2022/05/28 04:52:39;;;;;;;1.83;0.80;;;;;;;8.66;67.99;101432.50;4982351;28;20037;-70
2022/05/28 04:55:09;;;;;;;2.63;0.57;;;;;;;8.68;68.23;101437.72;5008469;28;20474;-69
2022/05/28 04:57:36;;;;;;;2.78;0.60;;;;;;;8.71;67.71;101431.81;5017894;28;20023;-71
2022/05/28 05:00:07;;;;;;;1.50;0.60;;;;;;;8.73;68.28;101435.13;4978297;28;20041;-68
2022/05/28 05:02:33;;;;;;;2.58;0.77;;;;;;;8.71;67.63;101438.06;4993147;28;20026;-69
2022/05/28 05:04:58;;;;;;;2.90;0.70;;;;;;;8.72;67.88;101441.66;4980713;28;20041;-70
2022/05/28 05:07:24;;;;;;;3.88;0.95;;;;;;;8.77;68.06;101438.25;4976334;28;20125;-71
2022/05/28 05:09:50;;;;;;;6.55;1.20;;;;;;;8.82;68.19;101450.13;4996156;28;20057;-70
2022/05/28 05:12:16;;;;;;;2.15;0.80;;;;;;;8.85;67.54;101446.94;5016139;28;20057;-69
2022/05/28 05:14:42;;;;;;;1.42;0.70;;;;;;;8.86;67.15;101445.88;5017964;28;20088;-71
2022/05/28 05:17:07;;;;;;;1.33;0.70;;;;;;;8.84;67.69;101442.53;4966954;28;20073;-71
2022/05/28 05:19:33;;;;;;;1.85;0.60;;;;;;;8.97;67.38;101435.25;5002024;28;20387;-70
2022/05/28 05:21:58;;;;;;;2.55;1.00;;;;;;;9.01;67.45;101440.03;5022135;28;20694;-69
2022/05/28 05:24:26;;;;;;;4.03;1.05;;;;;;;9.01;67.31;101436.44;4970310;28;20026;-69
2022/05/28 05:26:52;;;;;;;4.93;1.08;;;;;;;8.95;67.59;101437.38;5007613;28;20140;-70
2022/05/28 05:29:17;;;;;;;6.20;1.38;;;;;;;8.91;68.41;101432.38;5013966;28;20054;-70
2022/05/28 05:31:43;;;;;;;4.50;0.80;;;;;;;8.90;68.07;101438.88;5002081;28;20058;-69
2022/05/28 05:34:08;;;;;;;6.20;1.10;;;;;;;8.95;67.96;101431.91;4997363;28;20026;-69
2022/05/28 05:36:34;;;;;;;2.78;1.00;;;;;;;9.00;68.50;101441.06;5023024;28;20033;-71
2022/05/28 05:39:00;;;;;;;3.05;1.02;;;;;;;9.09;67.91;101434.22;4989040;28;20030;-70
2022/05/28 05:41:25;;;;;;;2.63;1.00;;;;;;;9.17;68.03;101435.81;5012221;28;20042;-70
2022/05/28 05:43:51;;;;;;;5.72;1.75;;;;;;;9.19;67.97;101436.41;4987199;28;20062;-71
2022/05/28 05:46:16;;;;;;;2.45;1.05;;;;;;;9.38;67.37;101430.88;5005483;28;20061;-69
2022/05/28 05:48:42;;;;;;;5.05;1.13;;;;;;;9.50;67.39;101434.47;5000159;28;20483;-69
2022/05/28 05:51:10;;;;;;;4.68;1.02;;;;;;;9.59;67.14;101427.63;4999913;28;20040;-69
2022/05/28 05:53:36;;;;;;;3.10;0.98;;;;;;;9.78;66.37;101430.22;5012483;28;20121;-69
2022/05/28 05:56:01;;;;;;;2.88;0.80;;;;;;;9.91;66.23;101430.00;4980403;28;20034;-70
2022/05/28 05:58:27;;;;;;;1.85;0.60;;;;;;;10.12;65.79;101433.25;5007264;28;20026;-71
2022/05/28 06:00:52;;;;;;;3.20;0.90;;;;;;;10.30;65.26;101424.88;4978244;28;20018;-71
2022/05/28 06:03:18;;;;;;;2.05;0.90;;;;;;;10.59;64.59;101429.63;4975763;28;20093;-70
2022/05/28 06:05:44;;;;;;;3.45;0.80;;;;;;;10.72;64.90;101423.88;4991202;28;20029;-71
2022/05/28 06:08:11;;;;;;;2.05;0.85;;;;;;;10.83;63.95;101419.44;5012128;28;20080;-69
2022/05/28 06:10:37;;;;;;;4.20;1.05;;;;;;;11.06;63.93;101423.16;5007510;28;20141;-69
2022/05/28 06:13:03;;;;;;;4.20;0.80;;;;;;;11.13;63.62;101418.38;5010885;28;20440;-72
2022/05/28 06:15:28;;;;;;;2.80;1.30;;;;;;;11.32;63.04;101428.03;4988095;28;20109;-70
2022/05/28 06:17:55;;;;;;;6.80;1.17;;;;;;;11.39;63.00;101427.03;4971199;28;20033;-72
2022/05/28 06:20:30;;;;;;;3.80;1.15;;;;;;;11.40;62.58;101418.56;5017483;28;20457;-75
2022/05/28 06:22:56;;;;;;;3.45;0.98;;;;;;;11.50;62.28;101429.69;4994099;28;20053;-72
2022/05/28 06:25:21;;;;;;;3.72;1.00;;;;;;;11.58;62.46;101425.75;5012169;28;20022;-74
2022/05/28 06:27:47;;;;;;;3.58;1.20;;;;;;;11.46;62.36;101433.19;5015336;28;20030;-72
2022/05/28 06:30:13;;;;;;;3.17;1.00;;;;;;;11.60;62.72;101441.94;5012350;28;20381;-71
2022/05/28 06:32:38;;;;;;;6.63;1.50;;;;;;;11.71;62.48;101435.53;5011998;28;20030;-73
2022/05/28 06:35:05;;;;;;;2.67;1.15;;;;;;;11.92;62.24;101444.91;5013344;28;20030;-72
2022/05/28 06:37:30;;;;;;;4.60;1.00;;;;;;;11.96;62.26;101435.16;5018695;28;20026;-73
2022/05/28 06:39:56;;;;;;;2.15;1.00;;;;;;;11.95;61.68;101432.66;4987094;28;20025;-70
2022/05/28 06:42:21;;;;;;;6.18;1.52;;;;;;;12.01;62.20;101435.22;5011877;28;20078;-70
2022/05/28 06:44:47;;;;;;;5.63;0.77;;;;;;;11.95;62.27;101428.00;5013601;28;20465;-70
2022/05/28 06:47:12;;;;;;;4.63;1.08;;;;;;;12.03;62.00;101433.06;5006100;28;20033;-70
2022/05/28 06:49:38;;;;;;;4.05;1.10;;;;;;;11.94;62.00;101418.09;5003744;28;20030;-72
2022/05/28 06:52:04;;;;;;;4.68;1.33;;;;;;;12.07;62.47;101438.03;5002367;28;20038;-71
2022/05/28 06:54:30;;;;;;;7.75;1.35;;;;;;;12.13;62.65;101434.28;5001417;28;20013;-70
2022/05/28 06:56:55;;;;;;;2.40;0.90;;;;;;;12.23;62.21;101432.50;4989966;28;20118;-69
2022/05/28 06:59:21;;;;;;;5.32;1.42;;;;;;;12.31;62.28;101431.25;4997785;28;20018;-71
2022/05/28 07:01:46;;;;;;;4.30;1.25;;;;;;;12.42;61.20;101421.25;5011907;28;20030;-71
2022/05/28 07:04:12;;;;;;;6.20;1.40;;;;;;;12.59;61.74;101434.94;4995106;28;20109;-72
2022/05/28 07:06:37;;;;;;;6.30;1.58;;;;;;;12.67;61.00;101428.97;4994771;28;20037;-71
2022/05/28 07:09:07;;;;;;;9.13;1.30;;;;;;;12.74;60.75;101424.13;4974767;28;20037;-69
2022/05/28 07:11:33;;;;;;;5.75;1.08;;;;;;;12.88;59.89;101421.00;5008859;28;20026;-72
2022/05/28 07:13:58;;;;;;;5.50;1.50;;;;;;;12.94;59.50;101417.22;5010762;28;20080;-70
2022/05/28 07:16:24;;;;;;;11.95;1.60;;;;;;;12.95;59.56;101427.09;5007328;28;20026;-76
2022/05/28 07:18:49;;;;;;;3.80;1.27;;;;;;;12.87;59.16;101430.31;4984266;28;20025;-72
2022/05/28 07:21:15;;;;;;;6.53;1.38;;;;;;;12.81;58.63;101431.34;5013858;28;20096;-73
2022/05/28 07:23:41;;;;;;;6.20;1.52;;;;;;;12.78;59.03;101426.38;5003935;28;20052;-73
2022/05/28 07:26:14;;;;;;;5.43;1.25;;;;;;;12.82;58.92;101416.53;4996416;28;20049;-75
2022/05/28 07:28:41;;;;;;;5.93;1.50;;;;;;;12.90;58.57;101418.81;5011441;28;20030;-74
2022/05/28 07:31:09;;;;;;;7.03;1.35;;;;;;;12.96;58.74;101423.28;4977592;28;20426;-75
2022/05/28 07:33:38;;;;;;;5.55;1.05;;;;;;;13.13;58.01;101422.34;4991630;28;20030;-74
2022/05/28 07:36:05;;;;;;;7.35;1.15;;;;;;;13.10;57.90;101415.47;5004844;28;20473;-76
2022/05/28 07:38:32;;;;;;;3.47;1.25;;;;;;;13.41;57.83;101419.34;5014846;28;20720;-75
2022/05/28 07:41:02;;;;;;;5.47;1.35;;;;;;;13.81;56.58;101419.13;5002906;28;20048;-74
2022/05/28 07:43:28;;;;;;;8.60;1.48;;;;;;;14.10;54.62;101414.94;4999654;28;20017;-77
2022/05/28 07:45:53;;;;;;;5.85;1.10;;;;;;;14.48;54.20;101420.38;5006965;28;20105;-75
2022/05/28 07:48:19;;;;;;;10.48;1.20;;;;;;;14.73;53.65;101405.91;4992745;28;20031;-76
2022/05/28 07:50:45;;;;;;;5.15;1.30;;;;;;;14.83;53.07;101411.47;4994221;28;20050;-76
2022/05/28 07:53:12;;;;;;;4.07;0.93;;;;;;;14.96;52.05;101414.78;5007176;28;20032;-76
2022/05/28 07:55:38;;;;;;;2.97;0.90;;;;;;;15.29;52.10;101407.97;5005176;28;20030;-75
2022/05/28 07:58:10;;;;;;;4.13;1.00;;;;;;;15.59;51.38;101411.03;5006893;28;20032;-75
2022/05/28 08:00:43;;;;;;;3.42;0.88;;;;;;;15.97;50.23;101423.41;5003506;28;20022;-74
2022/05/28 08:03:10;;;;;;;4.73;1.17;;;;;;;16.36;48.24;101408.16;5005284;28;20064;-75
2022/05/28 08:05:37;;;;;;;4.05;1.10;;;;;;;16.85;46.25;101410.16;5001981;28;20837;-74
2022/05/28 08:08:03;;;;;;;7.72;1.05;;;;;;;16.89;46.83;101416.81;5007042;28;20074;-75
2022/05/28 08:10:29;;;;;;;3.83;1.27;;;;;;;17.01;46.50;101402.66;4974305;28;20022;-75
2022/05/28 08:13:01;;;;;;;7.25;0.90;;;;;;;17.45;46.34;101412.03;4993537;28;20041;-74
2022/05/28 08:15:26;;;;;;;5.03;1.42;;;;;;;17.71;45.10;101420.09;4988785;28;20022;-75
2022/05/28 08:17:52;;;;;;;4.85;1.40;;;;;;;17.89;45.05;101407.50;5001237;28;20037;-75
2022/05/28 08:20:18;;;;;;;5.03;1.40;;;;;;;17.79;44.18;101405.66;4991689;28;20031;-75
2022/05/28 08:25:28;;;;;;;8.50;1.40;;;;;;;17.65;43.58;101415.72;5023007;28;20032;-75
2022/05/28 08:27:53;;;;;;;4.18;1.30;;;;;;;17.20;44.31;101416.63;5011299;28;20480;-74
2022/05/28 08:30:19;;;;;;;3.90;1.08;;;;;;;16.69;45.16;101405.81;4991721;28;20034;-75
2022/05/28 08:32:44;;;;;;;7.10;1.30;;;;;;;16.55;45.26;101411.94;5002667;28;20415;-75
2022/05/28 08:35:10;;;;;;;2.58;0.93;;;;;;;16.30;45.70;101409.31;4999284;28;20061;-76
2022/05/28 08:37:35;;;;;;;5.10;1.00;;;;;;;16.11;46.31;101406.31;4980987;28;20033;-76
2022/05/28 08:40:03;;;;;;;3.22;0.95;;;;;;;16.17;46.30;101405.19;4992676;28;20033;-75
2022/05/28 08:42:29;;;;;;;4.15;1.08;;;;;;;16.46;45.45;101413.66;4990879;28;20038;-75
2022/05/28 08:44:56;;;;;;;4.78;1.05;;;;;;;16.62;45.49;101410.81;5000132;28;20022;-75
2022/05/28 08:47:29;;;;;;;4.32;1.02;;;;;;;16.81;45.50;101403.56;5003097;28;20109;-78
2022/05/28 08:49:55;;;;;;;3.05;1.00;;;;;;;17.16;44.61;101404.50;5004646;28;20384;-77
2022/05/28 08:52:26;;;;;;;4.63;1.10;;;;;;;17.73;43.69;101391.03;5009442;28;20060;-76
2022/05/28 08:55:17;;;;;;;2.20;0.95;;;;;;;18.31;43.43;101401.25;5008460;28;20029;-78
2022/05/28 08:58:15;;;;;;;4.40;1.10;;;;;;;18.60;42.13;101403.13;4999132;28;20026;-77
2022/05/28 09:00:57;;;;;;;5.00;1.02;;;;;;;19.19;41.81;101413.97;5000915;28;20040;-77
2022/05/28 09:03:54;;;;;;;5.70;1.15;;;;;;;19.32;41.40;101407.69;5016951;28;20021;-76
2022/05/28 09:06:47;;;;;;;4.53;1.05;;;;;;;19.43;40.53;101416.66;4998576;28;20485;-77
2022/05/28 09:09:15;;;;;;;1.77;0.80;;;;;;;19.45;40.34;101410.78;5004859;28;20032;-76
2022/05/28 09:11:55;;;;;;;4.93;0.90;;;;;;;19.45;39.90;101413.56;5020161;28;20365;-76
2022/05/28 09:14:26;;;;;;;6.97;1.27;;;;;;;19.36;39.44;101397.63;5023016;28;20021;-76
2022/05/28 09:16:54;;;;;;;4.00;0.88;;;;;;;19.14;40.21;101400.19;5006769;28;20026;-77
2022/05/28 09:19:35;;;;;;;3.08;0.70;;;;;;;19.08;40.79;101391.13;5002670;28;20033;-77
2022/05/28 09:22:01;;;;;;;4.38;1.10;;;;;;;19.14;40.46;101402.97;4989712;28;20051;-76
2022/05/28 09:24:29;;;;;;;2.92;1.00;;;;;;;19.01;40.44;101402.59;5012357;28;20045;-77
2022/05/28 09:27:26;;;;;;;4.68;1.05;;;;;;;18.93;41.13;101411.56;5002944;28;20015;-77
2022/05/28 09:30:02;;;;;;;3.28;0.90;;;;;;;19.06;40.51;101410.00;5013573;28;20026;-75
2022/05/28 09:32:39;;;;;;;3.83;0.77;;;;;;;20.07;39.84;101409.78;5005939;28;20074;-76
2022/05/28 09:35:24;;;;;;;3.90;0.73;;;;;;;21.31;37.54;101396.88;5002348;28;20441;-76
2022/05/28 09:38:07;;;;;;;4.57;1.38;;;;;;;21.91;36.37;101412.34;5005355;28;20120;-76
2022/05/28 09:40:54;;;;;;;3.47;1.02;;;;;;;22.27;35.37;101400.22;4998011;28;20026;-74
2022/05/28 09:43:28;;;;;;;4.13;0.93;;;;;;;22.30;34.78;101407.94;5016434;28;20030;-77
2022/05/28 09:46:34;;;;;;;5.07;1.17;;;;;;;22.52;34.99;101390.34;5027877;28;20040;-76
2022/05/28 09:49:17;;;;;;;2.15;0.70;;;;;;;23.28;33.66;101388.31;4999140;28;20072;-75
2022/05/28 09:52:10;;;;;;;2.40;0.80;;;;;;;23.51;33.28;101381.38;4991176;28;20106;-75
2022/05/28 09:54:39;;;;;;;3.30;0.90;;;;;;;24.30;32.26;101395.13;5004981;28;20038;-77
2022/05/28 09:57:27;;;;;;;2.38;0.95;;;;;;;26.93;28.62;101382.09;4996729;28;20026;-74
2022/05/28 10:00:06;;;;;;;1.48;0.60;;;;;;;30.27;24.05;101393.91;5002662;28;20151;-74
2022/05/28 10:02:40;;;;;;;1.90;0.77;;;;;;;33.11;20.64;101400.91;5011917;28;20032;-75
2022/05/28 10:05:11;;;;;;;;;;;;;;;35.22;18.20;101392.81;4999917;28;20065;-74
2022/05/28 10:07:51;;;;;;;2.67;0.85;;;;;;;35.00;17.83;101397.78;5028056;28;19917;-76
2022/05/28 10:10:22;;;;;;;3.00;0.90;;;;;;;35.82;17.43;101404.25;5009354;28;20061;-77
2022/05/28 10:12:49;;;;;;;1.02;0.50;;;;;;;36.86;16.27;101402.53;5006780;28;20034;-75
2022/05/28 10:15:28;;;;;;;5.00;0.90;;;;;;;38.59;15.79;101397.03;5020440;28;20037;-75
2022/05/28 10:17:57;;;;;;;3.63;1.20;;;;;;;40.73;13.66;101400.22;5005755;28;20026;-76
2022/05/28 10:20:23;;;;;;;3.80;0.80;;;;;;;41.97;12.08;101384.53;5016662;28;20026;-76
2022/05/28 10:22:52;;;;;;;1.45;0.60;;;;;;;43.61;11.25;101398.19;5014896;28;20054;-76
2022/05/28 10:25:46;;;;;;;3.67;1.02;;;;;;;44.54;10.25;101406.97;5010039;28;20046;-75
2022/05/28 10:28:14;;;;;;;;;;;;;;;45.57;10.27;101394.75;5018826;28;20022;-75
2022/05/28 10:30:43;;;;;;;1.73;0.60;;;;;;;46.78;10.19;101386.00;5017904;28;19919;-76
2022/05/28 10:33:18;;;;;;;3.78;0.68;;;;;;;47.19;9.86;101385.38;5010867;28;20036;-75
2022/05/28 10:35:53;;;;;;;1.75;0.68;;;;;;;44.86;9.91;101375.88;4997478;28;20073;-76
2022/05/28 10:38:38;;;;;;;;;;;;;;;;;;;;;
2022/05/28 10:41:20;;;;;;;4.25;1.60;;;;;;;48.36;8.70;101363.56;5013926;28;20112;-74
2022/05/28 10:43:46;;;;;;;2.17;0.95;;;;;;;46.42;9.30;101375.56;5017258;28;20022;-77
2022/05/28 10:46:52;;;;;;;2.35;1.70;;;;;;;47.60;9.04;101367.34;5010270;28;20107;-76
2022/05/28 10:49:39;;;;;;;3.08;1.30;;;;;;;45.77;9.45;101367.38;5027485;28;20033;-75
2022/05/28 10:52:16;;;;;;;1.95;0.90;;;;;;;47.05;9.22;101357.25;5011195;28;20026;-76
2022/05/28 10:54:48;;;;;;;2.08;0.60;;;;;;;47.95;8.68;101370.19;5008661;28;20017;-77
2022/05/28 10:57:35;;;;;;;2.63;0.82;;;;;;;50.19;7.50;101367.28;5029989;28;20030;-77
2022/05/28 11:00:07;;;;;;;1.65;0.60;;;;;;;48.64;8.02;101358.06;5020776;28;20026;-76
2022/05/28 11:03:10;;;;;;;1.90;0.50;;;;;;;49.77;7.39;101364.75;4993012;28;20042;-76
2022/05/28 11:05:49;;;;;;;2.63;0.77;;;;;;;46.57;8.11;101358.22;5017929;28;20037;-78
2022/05/28 11:08:44;;;;;;;3.25;1.08;;;;;;;43.81;8.81;101356.63;5024280;28;20049;-75
2022/05/28 11:11:09;;;;;;;2.28;0.88;;;;;;;41.70;10.92;101350.56;4999030;28;20495;-75
2022/05/28 11:13:53;;;;;;;1.65;0.75;;;;;;;44.39;9.56;101352.06;5011064;28;20010;-74
2022/05/28 11:16:39;;;;;;;1.65;0.80;;;;;;;47.18;8.31;101340.38;5011111;28;20033;-75
2022/05/28 11:19:18;;;;;;;2.83;0.77;;;;;;;48.93;7.51;101341.72;5015441;28;20030;-76
2022/05/28 11:22:06;;;;;;;1.60;0.40;;;;;;;44.85;8.76;101343.38;5013514;28;20904;-78
2022/05/28 11:24:54;;;;;;;4.45;0.68;;;;;;;40.51;10.83;101336.19;5037530;28;20030;-76
2022/05/28 11:27:41;;;;;;;2.33;0.82;;;;;;;36.44;13.25;101322.00;5023355;28;20045;-81
2022/05/28 11:30:08;;;;;;;1.10;0.57;;;;;;;34.30;15.12;101329.41;5013677;28;20065;-75
2022/05/28 11:32:44;;;;;;;2.63;0.95;;;;;;;34.21;15.88;101312.78;5004488;28;20032;-75
2022/05/28 11:35:16;;;;;;;1.48;0.60;;;;;;;38.75;12.68;101319.97;5016075;28;20014;-74
2022/05/28 11:37:52;;;;;;;1.45;0.50;;;;;;;39.65;12.26;101308.56;4996353;28;20362;-76
2022/05/28 11:41:05;;;;;;;2.30;0.77;;;;;;;39.47;11.83;101316.75;5014689;28;20034;-76
2022/05/28 11:43:40;;;;;;;1.77;0.60;;;;;;;39.89;12.09;101308.38;5006698;28;20077;-76
2022/05/28 11:46:27;;;;;;;2.92;0.70;;;;;;;44.45;9.96;101306.91;5011279;28;20026;-76
2022/05/28 11:52:08;;;;;;;2.45;0.52;;;;;;;42.49;9.81;101296.06;5020954;28;20092;-78
2022/05/28 11:55:16;;;;;;;3.03;0.50;;;;;;;38.55;11.89;101287.75;4986917;28;20040;-74